E80

Alexander Municipal Airport

Belen, New Mexico, USA
METAR KE80 181115Z AUTO 29006KT 10SM OVC035 09/04 A3035 RMK AO2 T00850036
Observed Flight Rules
Oct-18 @ 11:15 UTC (16 minutes ago) Visual Flight Rules
Wind Visibility Clouds
290° at 6 knots 10 miles
  • Overcast at 3,500' AGL
Temperatures Readings
Current 9°C / 48°F
Dewpoint 4°C / 39°F
Humidity 71%
Altimeter 30.35" Hg
Pressure 1028 hPa
Elevation 1582
METAR KE80 181115Z AUTO 29006KT 10SM OVC035 09/04 A3035 RMK AO2 T00850036
Observed Flight Rules
Oct-18 @ 11:15 UTC
(16 minutes ago)
VFR
Wind Visibility
290° at 6 knots 10 miles
Clouds
  • Overcast at 3,500' AGL
Temperature Dewpoint
9°C / 48°F 4°C / 39°F
Humidity Altimeter Pressure
71% 30.35" Hg 1028 hPa